Time;durP1;ratioP1;P1;durP2;ratioP2;P2;SDS_P1;SDS_P2;PMS_P1;PMS_P2;Temp;Humidity;BMP_temperature;BMP_pressure;BME280_temperature;BME280_humidity;BME280_pressure;Samples;Min_cycle;Max_cycle;Signal;HPM_P1;HPM_P2
2022/08/22 00:01:22;;;;;;;4.07;2.53;;;;;;;23.14;53.53;100332.16;5031577;28;20034;-75
2022/08/22 00:04:18;;;;;;;2.95;2.72;;;;;;;23.15;53.60;100341.16;5016186;28;20424;-75
2022/08/22 00:07:06;;;;;;;3.03;2.55;;;;;;;23.15;53.52;100335.72;5031636;28;20057;-74
2022/08/22 00:09:53;;;;;;;2.75;2.47;;;;;;;23.14;53.25;100328.63;5014013;28;20052;-75
2022/08/22 00:12:24;;;;;;;3.03;2.67;;;;;;;23.15;53.47;100335.72;5073813;28;20123;-75
2022/08/22 00:15:11;;;;;;;3.20;2.60;;;;;;;23.15;53.70;100331.06;5072782;28;20024;-75
2022/08/22 00:18:06;;;;;;;2.53;2.33;;;;;;;23.14;53.40;100336.81;5089585;28;20032;-76
2022/08/22 00:20:40;;;;;;;3.00;2.70;;;;;;;23.17;53.65;100330.81;5051359;28;20040;-76
2022/08/22 00:23:26;;;;;;;2.78;2.58;;;;;;;23.18;54.16;100332.44;5056796;28;20050;-76
2022/08/22 00:25:58;;;;;;;2.83;2.42;;;;;;;23.15;53.73;100331.06;5072414;28;20391;-76
2022/08/22 00:28:27;;;;;;;3.00;2.60;;;;;;;23.14;53.90;100328.63;5055906;28;20029;-76
2022/08/22 00:31:25;;;;;;;3.17;2.70;;;;;;;23.15;54.11;100324.81;5056256;28;20024;-75
2022/08/22 00:34:10;;;;;;;2.33;2.13;;;;;;;23.16;53.95;100326.44;5073405;28;20044;-76
2022/08/22 00:36:55;;;;;;;2.60;2.40;;;;;;;23.18;54.19;100326.97;5074101;28;20039;-75
2022/08/22 00:39:58;;;;;;;3.00;2.70;;;;;;;23.13;53.70;100324.25;5056764;28;20020;-75
2022/08/22 00:42:41;;;;;;;2.55;2.35;;;;;;;23.15;53.60;100333.00;5055620;28;20153;-76
2022/08/22 00:45:30;;;;;;;3.05;2.53;;;;;;;23.17;54.28;100336.25;5066312;28;20041;-76
2022/08/22 00:48:05;;;;;;;2.97;2.63;;;;;;;23.14;53.97;100325.91;5066345;28;20032;-76
2022/08/22 00:51:04;;;;;;;2.90;2.63;;;;;;;23.16;54.43;100327.28;5067407;28;20037;-76
2022/08/22 00:53:33;;;;;;;3.08;2.78;;;;;;;23.15;53.77;100324.81;5068744;28;20037;-76
2022/08/22 00:56:34;;;;;;;2.75;2.55;;;;;;;23.14;54.37;100317.72;5054227;28;20024;-76
2022/08/22 00:59:06;;;;;;;2.58;2.38;;;;;;;23.15;53.70;100319.38;5041232;28;20040;-76
2022/08/22 01:01:36;;;;;;;2.78;2.58;;;;;;;23.13;53.61;100321.53;5051016;28;20048;-76
2022/08/22 01:04:41;;;;;;;3.00;2.70;;;;;;;23.12;53.87;100319.91;5017865;28;20071;-76
2022/08/22 01:07:46;;;;;;;2.60;2.40;;;;;;;23.17;54.45;100311.72;5003183;28;20034;-76
2022/08/22 01:10:36;;;;;;;2.83;2.63;;;;;;;23.16;54.41;100310.06;4990605;28;20049;-76
2022/08/22 01:13:17;;;;;;;2.78;2.58;;;;;;;23.17;54.26;100309.00;5006900;28;20130;-76
2022/08/22 01:15:42;;;;;;;2.67;2.47;;;;;;;23.14;53.88;100307.63;5000036;28;20045;-76
2022/08/22 01:18:52;;;;;;;2.63;2.42;;;;;;;23.16;54.41;100301.91;5014385;28;20037;-76
2022/08/22 01:21:50;;;;;;;4.20;2.75;;;;;;;23.15;53.95;100305.72;4971904;28;20031;-76
2022/08/22 01:24:34;;;;;;;2.70;2.50;;;;;;;23.17;54.48;100298.09;4914550;29;20123;-76
2022/08/22 01:26:59;;;;;;;2.95;2.40;;;;;;;23.14;54.07;100294.00;4914592;29;20089;-76
2022/08/22 01:29:43;;;;;;;2.83;2.50;;;;;;;23.16;54.58;100293.72;4914545;29;20036;-76
2022/08/22 01:32:27;;;;;;;2.65;2.45;;;;;;;23.13;54.07;100295.09;4914416;29;20171;-76
2022/08/22 01:35:26;;;;;;;2.80;2.60;;;;;;;23.15;54.42;100294.84;4914691;29;20143;-76
2022/08/22 01:38:13;;;;;;;2.50;2.30;;;;;;;23.16;54.49;100288.28;4914426;29;20471;-76
2022/08/22 01:41:06;;;;;;;2.75;2.55;;;;;;;23.13;54.33;100295.09;4925874;29;20532;-76
2022/08/22 01:43:40;;;;;;;2.97;2.70;;;;;;;23.13;53.95;100297.00;4914367;29;20036;-76
2022/08/22 01:46:50;;;;;;;2.92;2.40;;;;;;;23.14;54.80;100295.91;4914386;29;20470;-76
2022/08/22 01:49:33;;;;;;;2.80;2.60;;;;;;;23.13;54.11;100291.53;4912281;29;20095;-76
2022/08/22 01:52:28;;;;;;;3.05;2.75;;;;;;;23.13;54.79;100294.25;4917306;29;20043;-76
2022/08/22 01:54:57;;;;;;;2.70;2.50;;;;;;;23.12;54.32;100289.91;4917826;29;20050;-76
2022/08/22 01:57:22;;;;;;;2.88;2.65;;;;;;;23.11;54.27;100286.38;4927962;28;20035;-76
2022/08/22 01:59:51;;;;;;;3.00;2.70;;;;;;;23.11;54.34;100280.09;4993019;28;20051;-76
2022/08/22 02:02:23;;;;;;;2.85;2.65;;;;;;;23.11;54.09;100280.94;5034970;28;20539;-76
2022/08/22 02:05:22;;;;;;;2.95;2.70;;;;;;;23.14;54.69;100285.00;5035977;28;20468;-76
2022/08/22 02:08:05;;;;;;;3.10;2.55;;;;;;;23.12;54.44;100288.00;5035120;28;20022;-76
2022/08/22 02:10:48;;;;;;;3.03;2.80;;;;;;;23.12;54.32;100281.75;5034809;28;20064;-76
2022/08/22 02:13:17;;;;;;;2.80;2.50;;;;;;;23.12;54.11;100281.75;5036260;28;20109;-76
2022/08/22 02:15:47;;;;;;;2.70;2.50;;;;;;;23.10;54.10;100278.47;5035973;28;20080;-76
2022/08/22 02:18:30;;;;;;;4.43;2.85;;;;;;;23.11;54.35;100274.66;5067963;28;20017;-76
2022/08/22 02:21:16;;;;;;;2.88;2.63;;;;;;;23.10;54.31;100275.75;5034390;28;20468;-76
2022/08/22 02:23:56;;;;;;;3.13;2.80;;;;;;;23.12;54.34;100281.75;5035134;28;20056;-76
2022/08/22 02:26:45;;;;;;;3.22;2.53;;;;;;;23.11;54.18;100269.19;5051347;28;20029;-76
2022/08/22 02:29:17;;;;;;;2.70;2.50;;;;;;;23.11;54.25;100271.91;5034686;28;20029;-76
2022/08/22 02:31:45;;;;;;;3.20;2.88;;;;;;;23.11;54.49;100280.09;5050994;28;20384;-76
2022/08/22 02:34:25;;;;;;;3.53;2.95;;;;;;;23.12;55.04;100281.75;5034046;28;20041;-76
2022/08/22 02:37:38;;;;;;;2.80;2.60;;;;;;;23.13;55.10;100277.91;5035517;28;20052;-76
2022/08/22 02:40:39;;;;;;;2.97;2.67;;;;;;;23.14;55.05;100279.56;4991590;28;20042;-76
2022/08/22 02:43:14;;;;;;;3.00;2.70;;;;;;;23.12;54.32;100277.09;5050468;28;20103;-75
2022/08/22 02:45:45;;;;;;;3.30;2.75;;;;;;;23.11;54.36;100280.09;5037839;28;20017;-75
2022/08/22 02:48:14;;;;;;;3.10;2.72;;;;;;;23.11;54.34;100291.00;5055120;28;20411;-75
2022/08/22 02:50:46;;;;;;;2.67;2.47;;;;;;;23.10;54.45;100279.28;5037040;28;20028;-75
2022/08/22 02:53:19;;;;;;;2.88;2.50;;;;;;;23.11;54.36;100280.09;5037441;28;20559;-75
2022/08/22 02:55:45;;;;;;;;;;;;;;;23.27;54.73;100279.00;5037761;28;20052;-75
2022/08/22 02:58:22;;;;;;;3.17;2.70;;;;;;;23.18;54.85;100283.34;5054657;28;19963;-75
2022/08/22 03:01:09;;;;;;;3.40;2.75;;;;;;;23.13;54.63;100283.34;5054658;28;20297;-75
2022/08/22 03:03:37;;;;;;;3.35;3.00;;;;;;;23.12;54.70;100276.28;4960424;28;20125;-75
2022/08/22 03:06:31;;;;;;;3.40;3.10;;;;;;;23.16;55.24;100271.91;4973865;28;20090;-75
2022/08/22 03:08:59;;;;;;;2.90;2.63;;;;;;;23.15;54.54;100276.56;4973831;28;20054;-75
2022/08/22 03:11:29;;;;;;;3.97;2.63;;;;;;;23.14;54.53;100269.47;4973781;28;20074;-75
2022/08/22 03:14:00;;;;;;;2.75;2.50;;;;;;;23.15;54.80;100278.47;4973541;28;20509;-75
2022/08/22 03:16:25;;;;;;;2.80;2.50;;;;;;;23.17;54.78;100274.38;4973493;28;20152;-75
2022/08/22 03:19:13;;;;;;;2.70;2.50;;;;;;;23.19;54.75;100283.09;4973527;28;20038;-75
2022/08/22 03:21:43;;;;;;;2.78;2.58;;;;;;;23.19;54.91;100287.72;4957576;28;20114;-75
2022/08/22 03:24:25;;;;;;;2.58;2.38;;;;;;;23.18;54.49;100288.81;4973464;28;20109;-75
2022/08/22 03:27:10;;;;;;;2.90;2.63;;;;;;;23.21;55.03;100291.81;4973273;28;20031;-75
2022/08/22 03:29:39;;;;;;;2.70;2.50;;;;;;;23.23;54.92;100289.63;4972671;28;20063;-75
2022/08/22 03:32:15;;;;;;;3.85;2.83;;;;;;;23.23;55.00;100286.06;4973376;28;20211;-75
2022/08/22 03:35:00;;;;;;;3.33;2.80;;;;;;;23.27;55.43;100292.63;4987937;28;20058;-75
2022/08/22 03:37:36;;;;;;;2.70;2.50;;;;;;;23.27;55.15;100289.06;4993280;28;20234;-75
2022/08/22 03:40:23;;;;;;;3.13;2.83;;;;;;;23.29;55.21;100293.16;5011747;28;20052;-75
2022/08/22 03:43:19;;;;;;;2.65;2.45;;;;;;;23.29;55.24;100292.38;5073715;28;20108;-75
2022/08/22 03:46:11;;;;;;;2.75;2.55;;;;;;;23.30;55.09;100292.09;5074050;28;20037;-75
2022/08/22 03:49:05;;;;;;;3.13;2.83;;;;;;;23.32;55.29;100295.34;5058011;28;20024;-75
2022/08/22 03:51:39;;;;;;;2.87;2.67;;;;;;;23.34;55.49;100295.88;5052528;28;20032;-75
2022/08/22 03:54:17;;;;;;;2.70;2.40;;;;;;;23.33;54.53;100288.78;5073828;28;20115;-75
2022/08/22 03:57:05;;;;;;;2.63;2.42;;;;;;;23.37;55.49;100278.16;5055996;28;20031;-75
2022/08/22 03:59:36;;;;;;;2.70;2.50;;;;;;;23.37;55.20;100279.00;5055531;28;20073;-75
2022/08/22 04:02:30;;;;;;;2.80;2.60;;;;;;;23.39;55.68;100284.97;5073458;28;20035;-75
2022/08/22 04:05:04;;;;;;;3.08;2.78;;;;;;;23.41;55.10;100281.97;5073314;28;20031;-75
2022/08/22 04:07:37;;;;;;;3.10;2.80;;;;;;;23.46;55.04;100275.66;5073436;28;20067;-75
2022/08/22 04:10:05;;;;;;;3.05;2.80;;;;;;;23.48;55.32;100284.41;5055646;28;20077;-75
2022/08/22 04:12:46;;;;;;;2.97;2.67;;;;;;;23.48;55.03;100279.78;5073020;28;20024;-75
2022/08/22 04:15:30;;;;;;;2.92;2.70;;;;;;;23.52;55.22;100280.03;5056023;28;20028;-75
2022/08/22 04:18:04;;;;;;;3.10;2.87;;;;;;;23.54;54.91;100283.28;5055884;28;20115;-75
2022/08/22 04:20:54;;;;;;;2.60;2.40;;;;;;;23.54;54.73;100286.03;5073153;28;20455;-75
2022/08/22 04:24:05;;;;;;;2.42;2.22;;;;;;;23.53;54.90;100282.50;5073489;28;20024;-75
2022/08/22 04:26:40;;;;;;;2.83;2.53;;;;;;;23.58;55.38;100281.66;4972823;28;20087;-75
2022/08/22 04:29:33;;;;;;;2.80;2.60;;;;;;;23.59;55.38;100288.75;4956936;28;20101;-75
2022/08/22 04:32:27;;;;;;;2.80;2.60;;;;;;;23.63;54.86;100287.09;4958066;28;20609;-75
2022/08/22 04:35:01;;;;;;;3.00;2.70;;;;;;;23.62;54.78;100280.00;4957306;28;20166;-75
2022/08/22 04:37:26;;;;;;;2.95;2.50;;;;;;;23.63;54.68;100287.09;4941125;28;20031;-75
2022/08/22 04:39:58;;;;;;;3.78;2.72;;;;;;;23.62;54.33;100297.19;4972286;28;20114;-75
2022/08/22 04:42:37;;;;;;;3.17;2.45;;;;;;;23.65;54.64;100293.09;4944759;28;20026;-75
2022/08/22 04:45:05;;;;;;;2.90;2.70;;;;;;;23.62;55.24;100293.66;4972250;28;20035;-75
2022/08/22 04:47:51;;;;;;;2.42;2.22;;;;;;;23.66;54.16;100297.44;4972598;28;20027;-74
2022/08/22 04:50:37;;;;;;;2.80;2.58;;;;;;;23.69;54.38;100291.44;4956365;28;20046;-74
2022/08/22 04:53:22;;;;;;;2.72;2.40;;;;;;;23.69;54.84;100294.16;4972387;28;20045;-74
2022/08/22 04:56:14;;;;;;;2.55;2.35;;;;;;;23.70;54.29;100301.28;4988340;28;20034;-75
2022/08/22 04:58:46;;;;;;;3.63;2.53;;;;;;;23.66;55.08;100302.91;4972587;28;20524;-74
2022/08/22 05:01:40;;;;;;;2.50;2.30;;;;;;;23.65;54.52;100304.00;4989319;28;20049;-75
2022/08/22 05:04:30;;;;;;;3.10;2.80;;;;;;;23.74;55.35;100305.06;5044611;28;20037;-75
2022/08/22 05:06:59;;;;;;;2.80;2.60;;;;;;;23.70;54.15;100314.06;5002418;28;20274;-74
2022/08/22 05:09:26;;;;;;;3.08;2.72;;;;;;;23.72;55.37;100301.00;5001521;28;20038;-75
2022/08/22 05:11:53;;;;;;;4.10;2.53;;;;;;;23.65;55.42;100305.94;4986358;28;20039;-75
2022/08/22 05:14:26;;;;;;;2.80;2.50;;;;;;;23.65;55.18;100306.75;5008005;28;20034;-75
2022/08/22 05:16:52;;;;;;;2.70;2.50;;;;;;;23.70;55.07;100303.16;4987997;28;20030;-75
2022/08/22 05:19:24;;;;;;;2.97;2.65;;;;;;;23.68;55.37;100303.47;5003021;28;20539;-76
2022/08/22 05:21:50;;;;;;;3.28;2.95;;;;;;;23.72;55.68;100303.72;4999872;28;20085;-76
2022/08/22 05:24:41;;;;;;;3.47;3.17;;;;;;;23.70;56.02;100305.88;4987014;28;20041;-74
2022/08/22 05:27:34;;;;;;;4.25;2.60;;;;;;;23.66;56.57;100308.34;5005871;28;20058;-76
2022/08/22 05:30:10;;;;;;;2.70;2.50;;;;;;;23.67;55.85;100311.94;5000825;28;20172;-75
2022/08/22 05:32:48;;;;;;;2.97;2.45;;;;;;;23.67;55.91;100320.91;4987468;28;20062;-75
2022/08/22 05:35:14;;;;;;;4.43;2.50;;;;;;;23.74;55.85;100309.72;4992481;28;20078;-75
2022/08/22 05:37:42;;;;;;;3.20;2.90;;;;;;;23.73;56.04;100313.53;4995453;28;20122;-76
2022/08/22 05:40:13;;;;;;;2.83;2.47;;;;;;;23.76;55.67;100308.31;5017358;28;20034;-75
2022/08/22 05:42:38;;;;;;;2.80;2.53;;;;;;;23.70;56.13;100306.72;4999286;28;20050;-75
2022/08/22 05:45:05;;;;;;;3.10;2.80;;;;;;;23.69;55.62;100312.47;5034835;28;20028;-75
2022/08/22 05:47:37;;;;;;;5.45;2.60;;;;;;;23.75;55.56;100309.44;5035788;28;20044;-75
2022/08/22 05:50:17;;;;;;;3.78;2.90;;;;;;;23.79;55.62;100313.25;5056890;28;20025;-75
2022/08/22 05:53:05;;;;;;;2.50;2.20;;;;;;;23.81;55.60;100305.63;5065579;28;20031;-75
2022/08/22 05:55:30;;;;;;;4.20;2.60;;;;;;;23.86;55.18;100312.16;5053597;28;20025;-75
2022/08/22 05:58:05;;;;;;;2.50;2.30;;;;;;;23.81;55.34;100311.06;5042810;28;20022;-75
2022/08/22 06:00:31;;;;;;;3.38;2.75;;;;;;;23.85;54.88;100305.06;5020990;28;20036;-75
2022/08/22 06:03:23;;;;;;;2.58;2.38;;;;;;;23.85;55.63;100310.53;5018364;28;20033;-75
2022/08/22 06:05:51;;;;;;;2.65;2.45;;;;;;;23.87;55.79;100316.50;5018696;28;20100;-75
2022/08/22 06:08:18;;;;;;;2.95;2.65;;;;;;;23.90;55.52;100314.03;5018656;28;20103;-76
2022/08/22 06:10:48;;;;;;;3.53;2.42;;;;;;;23.90;55.54;100310.50;5020338;28;20055;-75
2022/08/22 06:13:21;;;;;;;2.90;2.55;;;;;;;23.91;55.17;100314.88;5018413;28;20057;-75
2022/08/22 06:15:54;;;;;;;2.80;2.40;;;;;;;23.85;55.75;100313.25;5036293;28;20029;-74
2022/08/22 06:18:20;;;;;;;3.30;2.63;;;;;;;23.97;55.12;100314.59;5036093;28;20104;-76
2022/08/22 06:20:54;;;;;;;3.47;2.70;;;;;;;23.93;55.51;100315.41;5017816;28;20036;-76
2022/08/22 06:23:40;;;;;;;3.30;2.72;;;;;;;23.97;54.92;100320.03;5001952;28;20537;-75
2022/08/22 06:26:07;;;;;;;3.45;2.80;;;;;;;23.93;55.51;100318.13;5020300;28;20025;-75
2022/08/22 06:28:36;;;;;;;2.65;2.45;;;;;;;23.96;54.70;100321.13;5051978;28;20040;-75
2022/08/22 06:31:03;;;;;;;4.95;2.30;;;;;;;23.99;54.65;100330.66;5001970;28;20026;-75
2022/08/22 06:33:29;;;;;;;2.85;2.50;;;;;;;24.16;54.20;100333.06;5056371;28;20068;-75
2022/08/22 06:38:51;;;;;;;3.92;2.50;;;;;;;24.12;54.49;100335.53;5040507;28;20486;-76
2022/08/22 06:41:17;;;;;;;3.50;2.40;;;;;;;24.04;55.05;100352.47;5055615;28;20489;-77
2022/08/22 06:43:42;;;;;;;2.88;2.10;;;;;;;25.09;51.04;100358.75;5021360;28;20025;-75
2022/08/22 06:46:08;;;;;;;5.53;2.10;;;;;;;24.21;53.24;100370.44;5037377;28;20037;-76
2022/08/22 06:48:33;;;;;;;4.07;1.88;;;;;;;24.30;52.76;100377.78;5037302;28;20040;-75
2022/08/22 06:50:59;;;;;;;2.45;1.70;;;;;;;24.29;53.06;100378.88;5037471;28;20047;-75
2022/08/22 06:53:43;;;;;;;1.50;1.40;;;;;;;24.25;52.64;100385.16;5020755;28;20032;-75
2022/08/22 06:56:08;;;;;;;;;;;;;;;24.53;52.10;100381.75;5039285;28;20083;-75
2022/08/22 06:58:34;;;;;;;1.45;1.35;;;;;;;24.48;52.15;100391.91;5071167;28;19912;-74
2022/08/22 07:01:05;;;;;;;1.50;1.40;;;;;;;24.38;52.54;100396.31;5055060;28;20371;-75
2022/08/22 07:03:33;;;;;;;7.18;1.45;;;;;;;24.35;52.24;100393.31;5021397;28;20028;-75
2022/08/22 07:05:59;;;;;;;2.03;1.73;;;;;;;24.32;52.58;100402.91;5055550;28;20023;-77
2022/08/22 07:08:25;;;;;;;2.63;1.13;;;;;;;25.09;50.63;100405.25;5037346;28;20032;-77
2022/08/22 07:10:57;;;;;;;1.23;0.90;;;;;;;24.79;51.24;100406.25;5054607;28;20021;-76
2022/08/22 07:13:24;;;;;;;2.92;1.20;;;;;;;24.06;53.32;100413.09;5055084;28;20028;-76
2022/08/22 07:15:54;;;;;;;2.05;0.98;;;;;;;24.27;52.51;100408.38;5037164;28;20064;-76
2022/08/22 07:18:22;;;;;;;6.15;1.17;;;;;;;24.30;52.63;100412.44;5037041;28;20028;-75
2022/08/22 07:20:59;;;;;;;2.53;1.63;;;;;;;24.28;52.41;100406.47;5036914;28;20022;-75
2022/08/22 07:23:42;;;;;;;13.07;4.60;;;;;;;24.27;52.79;100408.38;5054366;28;20036;-74
2022/08/22 07:26:31;;;;;;;10.57;4.75;;;;;;;24.35;52.08;100406.97;5037932;28;20047;-75
2022/08/22 07:29:03;;;;;;;11.23;3.90;;;;;;;24.38;51.79;100412.69;5054550;28;20434;-75
2022/08/22 07:31:36;;;;;;;11.48;3.85;;;;;;;24.40;51.82;100419.81;5053936;28;20044;-74
2022/08/22 07:34:07;;;;;;;8.57;3.50;;;;;;;24.33;51.58;100428.28;5037288;28;20451;-75
2022/08/22 07:36:44;;;;;;;5.57;2.67;;;;;;;24.38;51.32;100431.00;5055732;28;20139;-75
2022/08/22 07:39:29;;;;;;;5.63;2.42;;;;;;;24.38;51.30;100439.19;5038246;28;20075;-74
2022/08/22 07:42:41;;;;;;;4.05;2.10;;;;;;;24.47;51.04;100440.25;5055370;28;20032;-75
2022/08/22 07:45:25;;;;;;;4.53;2.05;;;;;;;24.47;50.66;100445.72;4992717;28;20042;-76
2022/08/22 07:48:00;;;;;;;2.65;1.73;;;;;;;24.51;49.98;100441.34;4975501;28;20078;-74
2022/08/22 07:50:32;;;;;;;2.92;1.40;;;;;;;24.47;49.98;100437.50;4976724;28;20100;-76
2022/08/22 07:53:38;;;;;;;1.88;1.20;;;;;;;24.35;50.18;100446.06;4992694;28;20037;-72
2022/08/22 07:56:06;;;;;;;1.40;1.20;;;;;;;24.42;49.60;100445.72;4945385;29;20035;-72
2022/08/22 07:58:32;;;;;;;2.90;1.20;;;;;;;24.44;49.57;100457.22;4957983;29;20046;-74
2022/08/22 08:00:58;;;;;;;1.80;1.02;;;;;;;24.41;49.31;100465.16;4938820;29;20043;-73
2022/08/22 08:03:25;;;;;;;1.98;1.10;;;;;;;24.42;49.05;100467.56;4961544;29;20090;-74
2022/08/22 08:05:50;;;;;;;1.27;0.93;;;;;;;24.45;49.02;100474.41;4956315;29;20062;-74
2022/08/22 08:08:20;;;;;;;1.90;0.93;;;;;;;24.42;48.70;100472.22;4938719;29;20039;-73
2022/08/22 08:10:46;;;;;;;2.90;0.93;;;;;;;24.42;48.55;100473.03;4938364;29;20031;-74
2022/08/22 08:13:20;;;;;;;1.50;0.70;;;;;;;24.45;48.54;100472.50;4942008;29;20046;-73
2022/08/22 08:15:45;;;;;;;0.98;0.63;;;;;;;24.42;48.26;100481.22;4975824;28;20049;-73
2022/08/22 08:18:18;;;;;;;1.10;0.60;;;;;;;24.43;48.51;100479.34;4980974;28;20030;-73
2022/08/22 08:20:43;;;;;;;0.80;0.50;;;;;;;24.40;48.56;100483.44;4996326;28;20046;-73
2022/08/22 08:23:09;;;;;;;0.77;0.60;;;;;;;24.42;48.35;100489.44;5012516;28;20033;-73
2022/08/22 08:25:57;;;;;;;0.60;0.60;;;;;;;24.44;48.32;100494.63;5012308;28;20030;-73
2022/08/22 08:28:36;;;;;;;1.42;0.60;;;;;;;24.45;47.79;100491.59;5056038;28;20032;-73
2022/08/22 08:31:08;;;;;;;0.50;0.50;;;;;;;24.49;47.55;100491.88;5057937;28;20017;-73
2022/08/22 08:33:36;;;;;;;1.33;0.60;;;;;;;24.48;47.80;100488.31;5076983;28;20048;-73
2022/08/22 08:36:14;;;;;;;0.50;0.50;;;;;;;24.48;47.81;100487.53;5039524;28;20059;-73
2022/08/22 08:38:48;;;;;;;0.50;0.40;;;;;;;24.49;47.36;100495.44;5040762;28;20024;-73
2022/08/22 08:41:14;;;;;;;0.60;0.60;;;;;;;24.51;46.90;100486.97;5039853;28;20406;-73
2022/08/22 08:43:39;;;;;;;0.50;0.50;;;;;;;24.47;46.98;100481.22;5074045;28;20029;-73
2022/08/22 08:46:10;;;;;;;1.02;0.60;;;;;;;24.48;47.41;100477.41;5073728;28;20037;-73
2022/08/22 08:49:10;;;;;;;0.30;0.30;;;;;;;24.49;47.04;100468.13;5074104;28;20036;-73
2022/08/22 08:51:54;;;;;;;0.75;0.50;;;;;;;24.45;47.29;100475.22;5073619;28;20033;-73
2022/08/22 08:54:23;;;;;;;;;;;;;;;24.57;46.14;100487.78;5075649;28;20063;-73
2022/08/22 08:57:09;;;;;;;0.45;0.45;;;;;;;24.42;46.33;100489.44;5073309;28;20354;-72
2022/08/22 08:59:41;;;;;;;1.17;0.38;;;;;;;24.43;47.04;100499.28;5059071;28;20044;-72
2022/08/22 09:02:19;;;;;;;0.60;0.47;;;;;;;24.46;46.98;100504.19;5078054;28;20126;-71
2022/08/22 09:05:05;;;;;;;0.52;0.50;;;;;;;24.46;46.95;100501.47;5060230;28;20550;-72
2022/08/22 09:07:50;;;;;;;0.43;0.40;;;;;;;24.49;46.77;100500.06;5077764;28;20028;-71
2022/08/22 09:10:16;;;;;;;;;;;;;;;24.65;46.45;100522.75;5077478;28;20040;-72
2022/08/22 09:13:15;;;;;;;0.40;0.40;;;;;;;24.58;46.45;100519.47;5077849;28;19972;-71
2022/08/22 09:15:49;;;;;;;0.40;0.40;;;;;;;24.50;46.47;100518.91;5077410;28;20470;-71
2022/08/22 09:18:26;;;;;;;0.40;0.40;;;;;;;24.49;46.27;100516.47;5059637;28;20507;-71
2022/08/22 09:21:18;;;;;;;0.68;0.50;;;;;;;24.49;46.76;100514.56;5077589;28;20036;-72
2022/08/22 09:23:50;;;;;;;0.40;0.40;;;;;;;24.47;46.36;100513.19;5060895;28;20028;-72
2022/08/22 09:26:31;;;;;;;0.35;0.35;;;;;;;24.44;46.47;100509.13;5077472;28;20119;-72
2022/08/22 09:29:55;;;;;;;0.40;0.40;;;;;;;24.47;47.06;100529.56;5079069;28;20362;-72
2022/08/22 09:32:33;;;;;;;0.47;0.47;;;;;;;24.51;46.37;100530.69;4937946;29;20071;-71
2022/08/22 09:35:10;;;;;;;0.47;0.40;;;;;;;24.41;46.21;100528.78;4939481;29;20052;-72
2022/08/22 09:38:13;;;;;;;1.83;0.40;;;;;;;24.48;46.70;100528.50;4937592;29;20074;-71
2022/08/22 09:40:43;;;;;;;0.50;0.38;;;;;;;24.48;46.77;100533.97;4938585;29;20103;-72
2022/08/22 09:43:12;;;;;;;0.57;0.38;;;;;;;24.48;46.58;100529.31;4936991;29;20050;-72
2022/08/22 09:45:59;;;;;;;0.43;0.38;;;;;;;24.49;46.81;100539.16;4936994;29;20047;-71
2022/08/22 09:48:42;;;;;;;0.93;0.40;;;;;;;24.47;46.91;100535.03;4930863;29;20041;-71
2022/08/22 09:51:17;;;;;;;0.77;0.40;;;;;;;24.47;46.85;100541.31;4937080;29;20135;-71
2022/08/22 09:54:01;;;;;;;0.32;0.30;;;;;;;24.49;47.08;100555.53;4938138;29;20419;-72
2022/08/22 09:56:38;;;;;;;0.35;0.35;;;;;;;24.48;46.44;100555.81;4931617;29;20055;-72
2022/08/22 09:59:08;;;;;;;0.60;0.30;;;;;;;24.45;46.76;100564.56;4940013;29;20046;-72
2022/08/22 10:01:48;;;;;;;0.57;0.32;;;;;;;24.46;46.78;100567.00;4937570;29;20035;-72
2022/08/22 10:04:13;;;;;;;0.35;0.35;;;;;;;24.47;46.49;100557.72;4937062;29;20039;-72
2022/08/22 10:06:57;;;;;;;0.40;0.40;;;;;;;24.50;46.80;100559.88;4961816;28;20039;-71
2022/08/22 10:09:24;;;;;;;0.20;0.20;;;;;;;24.45;46.24;100562.63;5020987;28;20437;-73
2022/08/22 10:12:04;;;;;;;0.30;0.30;;;;;;;24.45;46.79;100551.72;5057782;28;20036;-73
2022/08/22 10:15:11;;;;;;;0.63;0.30;;;;;;;24.48;46.70;100559.34;5058778;28;20070;-72
2022/08/22 10:17:40;;;;;;;0.30;0.30;;;;;;;24.49;46.52;100561.00;5034351;28;20065;-72
2022/08/22 10:20:29;;;;;;;0.85;0.40;;;;;;;24.49;46.60;100571.94;5017055;28;20041;-72
2022/08/22 10:23:26;;;;;;;0.30;0.30;;;;;;;24.55;46.72;100576.31;5017292;28;20128;-72
2022/08/22 10:26:25;;;;;;;0.50;0.40;;;;;;;24.52;46.44;100568.63;5016899;28;20087;-73
2022/08/22 10:28:57;;;;;;;0.30;0.30;;;;;;;24.52;46.36;100576.81;5019777;28;20138;-73
2022/08/22 10:31:51;;;;;;;0.38;0.38;;;;;;;24.52;46.43;100576.81;5017254;28;20040;-73
2022/08/22 10:34:23;;;;;;;0.52;0.43;;;;;;;24.52;46.55;100571.34;5031714;28;20099;-72
2022/08/22 10:37:09;;;;;;;0.30;0.30;;;;;;;24.54;46.67;100580.16;5021241;28;20360;-73
2022/08/22 10:39:59;;;;;;;1.15;0.50;;;;;;;24.56;46.52;100582.59;5036618;28;20040;-73
2022/08/22 10:42:30;;;;;;;0.30;0.30;;;;;;;24.50;46.52;100584.47;5053689;28;20048;-73
2022/08/22 10:45:14;;;;;;;0.30;0.30;;;;;;;24.41;46.72;100586.13;4997378;28;20034;-72
2022/08/22 10:48:17;;;;;;;0.30;0.30;;;;;;;24.46;46.89;100594.31;5013773;28;20185;-73
2022/08/22 10:51:16;;;;;;;0.30;0.30;;;;;;;24.51;46.75;100597.06;5000899;28;20045;-73
2022/08/22 10:53:51;;;;;;;0.55;0.30;;;;;;;24.53;46.77;100599.50;5015637;28;20049;-73
2022/08/22 10:56:26;;;;;;;0.35;0.30;;;;;;;24.55;46.50;100603.63;5072612;28;20029;-73
2022/08/22 10:58:54;;;;;;;0.30;0.30;;;;;;;24.49;46.62;100601.97;5084242;28;20040;-71
2022/08/22 11:01:20;;;;;;;0.45;0.30;;;;;;;24.53;46.67;100607.72;5084830;28;20043;-72
2022/08/22 11:04:25;;;;;;;0.70;0.40;;;;;;;24.53;46.88;100611.25;5052266;28;20039;-71
2022/08/22 11:07:00;;;;;;;0.90;0.30;;;;;;;24.42;46.87;100609.63;4988768;28;20039;-71
2022/08/22 11:09:35;;;;;;;0.40;0.40;;;;;;;24.50;46.75;100613.72;4963511;28;20057;-71
2022/08/22 11:12:09;;;;;;;0.65;0.45;;;;;;;24.53;46.91;100616.72;4958876;28;20043;-71
2022/08/22 11:14:52;;;;;;;0.60;0.50;;;;;;;24.54;46.77;100618.41;4973850;28;20055;-71
2022/08/22 11:17:52;;;;;;;0.55;0.50;;;;;;;24.57;46.74;100616.19;4957361;28;20114;-71
2022/08/22 11:20:35;;;;;;;0.47;0.47;;;;;;;24.61;46.96;100622.75;4961194;28;20370;-71
2022/08/22 11:23:19;;;;;;;0.40;0.38;;;;;;;24.64;47.21;100628.47;4973227;28;20030;-71
2022/08/22 11:26:11;;;;;;;0.40;0.40;;;;;;;24.61;47.20;100633.66;4973432;28;20170;-71
2022/08/22 11:28:58;;;;;;;1.38;0.40;;;;;;;24.60;47.43;100632.88;4973298;28;20441;-73
2022/08/22 11:31:38;;;;;;;0.70;0.50;;;;;;;24.66;47.46;100636.41;4973344;28;20125;-72
2022/08/22 11:34:29;;;;;;;0.38;0.38;;;;;;;24.58;47.48;100634.22;4962312;28;20085;-72
2022/08/22 11:37:09;;;;;;;0.40;0.40;;;;;;;24.58;47.81;100634.22;4938083;29;20118;-72
2022/08/22 11:39:41;;;;;;;0.95;0.38;;;;;;;24.53;48.40;100643.22;4939998;29;20434;-73
2022/08/22 11:42:24;;;;;;;0.38;0.38;;;;;;;24.48;48.66;100648.69;4938537;29;20049;-73
2022/08/22 11:44:54;;;;;;;0.43;0.40;;;;;;;24.46;48.49;100653.63;5018001;28;20033;-71
2022/08/22 11:47:23;;;;;;;0.85;0.40;;;;;;;24.57;48.82;100649.81;5069940;28;20532;-72
2022/08/22 11:49:50;;;;;;;0.30;0.30;;;;;;;24.65;48.51;100656.63;5020579;28;20029;-71
2022/08/22 11:52:25;;;;;;;0.50;0.50;;;;;;;24.65;48.51;100653.91;5045816;28;20029;-72
2022/08/22 11:55:10;;;;;;;0.52;0.52;;;;;;;24.60;49.19;100660.19;5036945;28;20032;-73
2022/08/22 11:57:43;;;;;;;0.40;0.40;;;;;;;24.50;48.82;100666.44;5054734;28;20396;-73
2022/08/22 12:00:32;;;;;;;0.38;0.38;;;;;;;24.55;49.03;100663.72;5036586;28;20020;-73
2022/08/22 12:03:19;;;;;;;4.22;0.63;;;;;;;24.60;49.28;100659.38;5020516;28;20443;-72
2022/08/22 12:05:48;;;;;;;0.65;0.60;;;;;;;24.52;49.76;100664.25;5054393;28;20444;-73
2022/08/22 12:08:28;;;;;;;0.40;0.40;;;;;;;24.96;49.08;100673.78;5019809;28;20559;-71
2022/08/22 12:11:01;;;;;;;0.60;0.60;;;;;;;24.83;48.92;100677.09;5053425;28;20024;-70
2022/08/22 12:13:48;;;;;;;0.77;0.70;;;;;;;24.77;48.94;100684.50;5053243;28;20025;-70
2022/08/22 12:16:28;;;;;;;0.43;0.43;;;;;;;24.67;49.44;100682.56;5053946;28;20578;-70
2022/08/22 12:19:02;;;;;;;1.17;0.50;;;;;;;25.73;47.24;100689.09;5020505;28;20048;-71
2022/08/22 12:21:45;;;;;;;0.43;0.43;;;;;;;25.70;46.93;100682.28;5053272;28;20057;-70
2022/08/22 12:24:45;;;;;;;0.60;0.60;;;;;;;25.32;47.86;100684.66;5035512;28;20471;-70